.
WxDataArchive / Data Records for 2006-02-27
2006-02-26 February 2006 2006-02-28

Data Records for Monday, 27 February 2006

Time	Temp	Chill	HIndex	Humid	Dewpt	 Wind 	HiWind	WindDir	Rain 	Barom 
-----	----	-----	------	-----	-----	------	------	-------	-----	----- 
00:00	22.9	22.9	22.9	45	4.8	0	0	---	0.00	30.224 
00:05	22.7	22.7	22.7	42	3.1	0	0	---	0.00	30.224 
00:10	22.7	22.7	22.7	44	4.1	0	0	---	0.00	30.224 
00:15	22.5	22.5	22.5	47	5.3	0	0	---	0.00	30.220 
00:20	22.2	22.2	22.2	48	5.5	0	0	---	0.00	30.220 
00:25	22.2	22.2	22.2	50	6.4	0	0	---	0.00	30.220 
00:30	22.1	22.1	22.1	52	7.2	0	0	---	0.00	30.215 
00:35	21.9	21.9	21.9	52	7.0	0	0	---	0.00	30.215 
00:40	21.6	21.6	21.6	52	6.7	0	0	---	0.00	30.215 
00:45	21.4	21.4	21.4	51	6.1	0	0	---	0.00	30.208 
00:50	21.3	21.3	21.3	51	6.0	0	0	---	0.00	30.208 
00:55	21.3	21.3	21.3	53	6.9	0	0	---	0.00	30.208 
01:00	21.1	21.1	21.1	54	7.1	0	0	---	0.00	30.204 
01:05	21.3	21.3	21.3	55	7.7	0	0	---	0.00	30.204 
01:10	21.3	21.3	21.3	57	8.5	0	0	---	0.00	30.204 
01:15	21.3	21.3	21.3	57	8.5	0	0	---	0.00	30.201 
01:20	21.3	21.3	21.3	56	8.1	0	0	---	0.00	30.201 
01:25	21.3	21.3	21.3	57	8.5	0	0	---	0.00	30.201 
01:30	21.3	21.3	21.3	57	8.5	0	0	---	0.00	30.198 
01:35	21.4	21.4	21.4	55	7.8	0	0	---	0.00	30.198 
01:40	21.4	21.4	21.4	57	8.6	0	0	---	0.00	30.198 
01:45	21.4	21.4	21.4	58	8.9	0	0	---	0.00	30.195 
01:50	21.3	21.3	21.3	58	8.9	0	0	---	0.00	30.195 
01:55	21.3	21.3	21.3	58	8.9	0	0	---	0.00	30.195 
02:00	21.4	21.4	21.4	57	8.6	0	1	270	0.00	30.188 
02:05	21.8	21.8	21.8	58	9.3	0	0	---	0.00	30.188 
02:10	22.2	22.2	22.2	57	9.3	0	1	270	0.00	30.188 
02:15	22.7	22.7	22.7	56	9.4	0	1	270	0.00	30.190 
02:20	23.2	23.2	23.2	55	9.5	0	2	270	0.00	30.190 
02:25	23.6	23.6	23.6	53	9.0	0	1	270	0.00	30.190 
02:30	24.1	24.1	24.1	53	9.5	0	2	270	0.00	30.192 
02:35	24.5	24.5	24.5	52	9.4	1	2	270	0.00	30.192 
02:40	24.8	24.8	24.8	51	9.3	1	3	270	0.00	30.192 
02:45	25.1	25.1	25.1	50	9.1	0	2	248	0.00	30.185 
02:50	25.3	25.3	25.3	50	9.3	1	3	248	0.00	30.185 
02:55	25.3	25.3	25.3	50	9.3	0	1	248	0.00	30.185 
03:00	25.3	25.3	25.3	50	9.3	0	2	248	0.00	30.181 
03:05	25.1	25.1	25.1	50	9.1	0	1	248	0.00	30.181 
03:10	25.0	25.0	25.0	50	9.0	0	0	---	0.00	30.181 
03:15	24.8	24.8	24.8	51	9.3	0	1	248	0.00	30.175 
03:20	24.7	24.7	24.7	51	9.2	0	1	248	0.00	30.175 
03:25	24.7	24.7	24.7	51	9.2	0	2	248	0.00	30.175 
03:30	24.7	24.7	24.7	51	9.2	0	1	248	0.00	30.164 
03:35	24.7	24.7	24.7	51	9.2	0	1	248	0.00	30.164 
03:40	24.8	24.8	24.8	50	8.8	1	2	248	0.00	30.164 
03:45	25.0	25.0	25.0	49	8.6	0	1	248	0.00	30.160 
03:50	25.3	25.3	25.3	49	8.8	1	3	225	0.00	30.160 
03:55	25.4	25.4	25.4	49	8.9	0	2	225	0.00	30.160 
04:00	25.6	25.6	25.6	48	8.7	1	2	225	0.00	30.153 
04:05	25.7	25.7	25.7	46	7.8	1	3	248	0.00	30.153 
04:10	26.0	26.0	26.0	46	8.1	1	3	248	0.00	30.153 
04:15	26.1	26.1	26.1	46	8.2	1	3	248	0.00	30.148 
04:20	26.3	26.3	26.3	45	7.9	1	3	248	0.00	30.148 
04:25	26.3	26.3	26.3	46	8.4	1	3	248	0.00	30.148 
04:30	26.4	26.4	26.4	45	8.0	2	4	248	0.00	30.143 
04:35	26.6	26.6	26.6	45	8.2	1	3	248	0.00	30.143 
04:40	26.6	26.6	26.6	45	8.2	1	3	248	0.00	30.143 
04:45	26.7	26.7	26.7	44	7.8	1	3	248	0.00	30.138 
04:50	26.7	26.7	26.7	44	7.8	1	4	248	0.00	30.138 
04:55	26.7	26.7	26.7	45	8.2	1	2	248	0.00	30.138 
05:00	26.7	26.7	26.7	45	8.2	1	2	248	0.00	30.136 
05:05	26.6	26.6	26.6	46	8.6	0	2	248	0.00	30.136 
05:10	26.6	26.6	26.6	46	8.6	1	2	248	0.00	30.136 
05:15	26.6	26.6	26.6	45	8.2	1	3	248	0.00	30.134 
05:20	26.7	26.7	26.7	45	8.2	1	3	248	0.00	30.134 
05:25	26.7	26.7	26.7	45	8.2	1	2	248	0.00	30.134 
05:30	26.7	26.7	26.7	45	8.2	1	4	248	0.00	30.130 
05:35	26.7	26.7	26.7	45	8.2	1	3	248	0.00	30.130 
05:40	26.7	26.7	26.7	46	8.7	1	2	248	0.00	30.130 
05:45	26.6	26.6	26.6	45	8.2	1	3	248	0.00	30.125 
05:50	26.6	26.6	26.6	46	8.6	1	3	248	0.00	30.125 
05:55	26.6	26.6	26.6	46	8.6	1	3	248	0.00	30.125 
06:00	26.6	26.6	26.6	46	8.6	1	4	248	0.00	30.125 
06:05	26.6	26.6	26.6	46	8.6	1	2	248	0.00	30.125 
06:10	26.6	26.6	26.6	46	8.6	1	2	248	0.00	30.125 
06:15	26.6	26.6	26.6	46	8.6	1	2	248	0.00	30.119 
06:20	26.6	26.6	26.6	46	8.6	1	3	248	0.00	30.119 
06:25	26.6	26.6	26.6	46	8.6	1	3	248	0.00	30.119 
06:30	26.6	26.6	26.6	46	8.6	1	2	248	0.00	30.121 
06:35	26.6	26.6	26.6	46	8.6	1	2	248	0.00	30.121 
06:40	26.6	26.6	26.6	46	8.6	1	3	248	0.00	30.121 
06:45	26.6	26.6	26.6	47	9.1	0	2	248	0.00	30.120 
06:50	26.6	26.6	26.6	48	9.6	1	3	248	0.00	30.120 
06:55	26.6	26.6	26.6	49	10.0	0	3	248	0.00	30.120 
07:00	26.6	26.6	26.6	50	10.5	0	2	248	0.00	30.117 
07:05	26.6	26.6	26.6	49	10.0	1	2	248	0.00	30.117 
07:10	26.7	26.7	26.7	48	9.7	1	3	248	0.00	30.117 
07:15	26.7	26.7	26.7	48	9.7	0	3	248	0.00	30.116 
07:20	26.9	26.9	26.9	49	10.3	1	4	248	0.00	30.116 
07:25	27.0	27.0	27.0	48	10.0	1	3	248	0.00	30.116 
07:30	27.2	27.2	27.2	48	10.1	1	3	248	0.00	30.111 
07:35	27.3	27.3	27.3	48	10.2	1	4	248	0.00	30.111 
07:40	27.5	27.5	27.5	47	9.9	1	3	225	0.00	30.111 
07:45	27.6	27.6	27.6	48	10.5	1	2	248	0.00	30.107 
07:50	27.6	27.6	27.6	48	10.5	0	2	248	0.00	30.107 
07:55	27.8	27.8	27.8	48	10.7	1	3	248	0.00	30.107 
08:00	27.9	27.9	27.9	49	11.2	1	3	248	0.00	30.106 
08:05	27.9	27.9	27.9	49	11.2	1	3	248	0.00	30.106 
08:10	28.1	28.1	28.1	49	11.4	1	2	248	0.00	30.106 
08:15	28.2	28.2	28.2	49	11.5	1	2	248	0.00	30.106 
08:20	28.4	28.4	28.4	50	12.2	1	2	248	0.00	30.106 
08:25	28.5	28.5	28.5	50	12.3	1	5	248	0.00	30.106 
08:30	28.7	28.7	28.7	50	12.4	2	4	248	0.00	30.115 
08:35	28.8	28.8	28.8	51	13.0	1	3	248	0.00	30.115 
08:40	29.0	29.0	29.0	52	13.6	1	5	248	0.00	30.115 
08:45	29.3	29.3	29.3	53	14.3	2	4	248	0.00	30.107 
08:50	29.4	29.4	29.4	54	14.8	1	3	248	0.00	30.107 
08:55	29.7	29.7	29.7	54	15.1	2	3	248	0.00	30.107 
09:00	29.8	29.8	29.8	54	15.2	1	3	248	0.00	30.110 
09:05	30.0	30.0	30.0	54	15.4	2	4	248	0.00	30.110 
09:10	30.3	30.3	30.3	55	16.1	2	5	248	0.00	30.110 
09:15	30.4	30.4	30.4	56	16.6	2	3	248	0.00	30.110 
09:20	30.7	30.7	30.7	57	17.3	2	5	248	0.00	30.110 
09:25	30.7	30.7	30.7	59	18.1	3	6	270	0.00	30.110 
09:30	30.9	30.9	30.9	61	19.1	1	4	248	0.00	30.115 
09:35	30.9	30.9	30.9	63	19.8	2	7	248	0.00	30.115 
09:40	30.9	30.9	30.9	65	20.5	2	5	248	0.00	30.115 
09:45	30.9	30.9	30.9	64	20.2	1	2	248	0.00	30.109 
09:50	31.0	31.0	31.0	64	20.3	0	2	248	0.00	30.109 
09:55	31.2	31.2	31.2	64	20.5	2	5	248	0.00	30.109 
10:00	31.3	31.3	31.3	65	20.9	0	3	248	0.00	30.102 
10:05	31.3	31.3	31.3	67	21.6	2	6	270	0.00	30.102 
10:10	31.3	31.3	31.3	67	21.6	1	3	270	0.00	30.102 
10:15	31.2	31.2	31.2	69	22.2	2	5	248	0.00	30.097 
10:20	31.2	31.2	31.2	69	22.2	2	5	248	0.00	30.097 
10:25	31.2	31.2	31.2	72	23.2	1	4	248	0.00	30.097 
10:30	31.5	31.5	31.5	72	23.5	1	2	248	0.00	30.085 
10:35	31.8	31.8	31.8	72	23.8	1	3	248	0.00	30.085 
10:40	31.9	31.9	31.9	72	23.9	0	2	248	0.00	30.085 
10:45	32.2	32.2	32.2	72	24.2	0	2	248	0.00	30.075 
10:50	32.5	32.5	32.5	70	23.8	0	2	248	0.00	30.075 
10:55	32.7	32.7	32.7	69	23.7	1	3	248	0.00	30.075 
11:00	33.1	33.1	33.1	69	24.1	0	1	248	0.00	30.069 
11:05	33.2	33.2	33.2	69	24.2	1	2	225	0.00	30.069 
11:10	33.2	33.2	33.2	69	24.2	1	2	112	0.00	30.069 
11:15	33.2	33.2	33.2	69	24.2	0	2	135	0.00	30.056 
11:20	33.2	33.2	33.2	68	23.8	1	2	90	0.00	30.056 
11:25	33.5	33.5	33.5	68	24.1	0	1	90	0.00	30.056 
11:30	33.7	33.7	33.7	67	23.9	0	2	90	0.00	30.053 
11:35	33.5	33.5	33.5	69	24.4	1	2	315	0.00	30.053 
11:40	33.8	33.8	33.8	66	23.7	0	2	315	0.00	30.053 
11:45	34.1	34.1	34.1	65	23.6	0	2	315	0.00	30.047 
11:50	34.1	34.1	34.1	65	23.6	1	2	22	0.00	30.047 
11:55	33.8	33.8	33.8	66	23.7	0	2	22	0.00	30.047 
12:00	33.8	33.8	33.8	67	24.0	1	3	22	0.00	30.042 
12:05	33.7	33.7	33.7	68	24.3	0	3	90	0.00	30.042 
12:10	33.5	33.5	33.5	68	24.1	1	2	90	0.00	30.042 
12:15	33.7	33.7	33.7	68	24.3	0	2	90	0.00	30.038 
12:20	33.8	33.8	33.8	67	24.0	1	2	45	0.00	30.038 
12:25	33.8	33.8	33.8	67	24.0	1	3	45	0.00	30.038 
12:30	33.7	33.7	33.7	67	23.9	1	3	68	0.00	30.037 
12:35	33.8	33.8	33.8	68	24.4	1	4	90	0.00	30.037 
12:40	34.0	34.0	34.0	67	24.2	1	4	90	0.00	30.037 
12:45	34.1	34.1	34.1	68	24.7	1	4	90	0.00	30.025 
12:50	34.3	34.3	34.3	66	24.1	1	3	90	0.00	30.025 
12:55	34.4	34.4	34.4	65	23.9	2	4	90	0.00	30.025 
13:00	34.6	34.6	34.6	66	24.4	1	2	90	0.00	30.018 
13:05	34.9	34.9	34.9	65	24.3	1	3	90	0.00	30.018 
13:10	34.7	34.7	34.7	66	24.5	2	5	112	0.00	30.018 
13:15	34.7	34.7	34.7	66	24.5	1	4	112	0.00	30.007 
13:20	34.9	34.9	34.9	65	24.3	1	3	112	0.00	30.007 
13:25	35.3	35.3	35.3	65	24.7	0	1	112	0.00	30.007 
13:30	35.3	35.3	35.3	65	24.7	1	5	112	0.00	30.000 
13:35	35.0	35.0	35.0	65	24.4	2	5	90	0.00	30.000 
13:40	35.0	35.0	35.0	65	24.4	1	4	112	0.00	30.000 
13:45	35.0	35.0	35.0	65	24.4	1	3	112	0.00	29.990 
13:50	35.0	35.0	35.0	64	24.1	1	2	90	0.00	29.990 
13:55	35.3	35.3	35.3	65	24.7	1	3	68	0.00	29.990 
14:00	35.5	35.5	35.5	62	23.8	1	2	292	0.00	29.984 
14:05	35.9	35.9	35.9	63	24.5	0	3	292	0.00	29.984 
14:10	36.3	36.3	36.3	61	24.2	1	3	68	0.00	29.984 
14:15	36.5	36.5	36.5	61	24.3	1	5	90	0.00	29.968 
14:20	36.5	36.5	36.5	61	24.3	1	3	90	0.00	29.968 
14:25	36.5	36.5	36.5	62	24.7	1	3	90	0.00	29.968 
14:30	36.8	36.8	36.8	60	24.2	1	3	90	0.00	29.963 
14:35	37.2	37.2	37.2	60	24.6	1	3	225	0.00	29.963 
14:40	37.3	37.3	37.3	59	24.3	1	4	112	0.00	29.963 
14:45	36.9	36.9	36.9	60	24.3	1	4	112	0.00	29.956 
14:50	37.0	37.0	37.0	60	24.4	1	4	112	0.00	29.956 
14:55	37.2	37.2	37.2	60	24.6	2	4	112	0.00	29.956 
15:00	37.2	37.2	37.2	61	25.0	1	4	112	0.00	29.953 
15:05	37.3	37.3	37.3	61	25.1	0	2	112	0.00	29.953 
15:10	37.6	37.6	37.6	59	24.6	1	3	112	0.00	29.953 
15:15	37.5	37.5	37.5	60	24.9	3	6	90	0.00	29.950 
15:20	37.2	37.2	37.2	62	25.4	3	6	112	0.00	29.950 
15:25	37.0	37.0	37.0	60	24.4	1	4	90	0.00	29.950 
15:30	37.3	37.3	37.3	60	24.7	1	4	90	0.00	29.947 
15:35	37.6	37.6	37.6	60	25.0	1	2	90	0.00	29.947 
15:40	37.9	37.9	37.9	61	25.7	1	3	90	0.00	29.947 
15:45	38.2	38.2	38.2	59	25.2	1	3	68	0.00	29.944 
15:50	38.3	38.3	38.3	59	25.2	1	4	112	0.00	29.944 
15:55	38.2	38.2	38.2	60	25.6	2	4	90	0.00	29.944 
16:00	38.2	38.2	38.2	59	25.2	2	4	90	0.00	29.941 
16:05	38.0	38.0	38.0	59	25.0	2	5	112	0.00	29.941 
16:10	37.9	37.9	37.9	59	24.9	3	6	90	0.00	29.941 
16:15	37.5	37.5	37.5	60	24.9	3	6	112	0.00	29.941 
16:20	37.2	37.2	37.2	61	25.0	3	7	112	0.00	29.941 
16:25	37.0	37.0	37.0	61	24.8	2	5	90	0.00	29.941 
16:30	37.0	37.0	37.0	62	25.2	1	3	68	0.00	29.948 
16:35	37.3	37.3	37.3	62	25.5	1	3	45	0.00	29.948 
16:40	37.3	37.3	37.3	61	25.1	2	5	90	0.00	29.948 
16:45	37.0	37.0	37.0	61	24.8	1	4	90	0.00	29.945 
16:50	36.9	36.9	36.9	62	25.1	1	2	45	0.00	29.945 
16:55	36.8	36.8	36.8	62	25.0	2	5	112	0.00	29.945 
17:00	36.8	36.8	36.8	62	25.0	2	5	68	0.00	29.949 
17:05	36.6	36.6	36.6	62	24.8	2	4	22	0.00	29.949 
17:10	36.5	36.5	36.5	62	24.7	1	3	45	0.00	29.949 
17:15	36.5	36.5	36.5	62	24.7	1	5	112	0.00	29.950 
17:20	36.5	36.5	36.5	62	24.7	1	4	112	0.00	29.950 
17:25	36.5	36.5	36.5	62	24.7	1	4	90	0.00	29.950 
17:30	36.5	36.5	36.5	62	24.7	1	3	45	0.00	29.952 
17:35	36.5	36.5	36.5	62	24.7	2	5	90	0.00	29.952 
17:40	36.3	36.3	36.3	62	24.5	1	5	112	0.00	29.952 
17:45	36.3	36.3	36.3	63	24.9	0	2	112	0.00	29.953 
17:50	36.2	36.2	36.2	62	24.5	0	2	112	0.00	29.953 
17:55	36.2	36.2	36.2	62	24.5	1	3	112	0.00	29.953 
18:00	36.0	36.0	36.0	62	24.3	2	4	112	0.00	29.948 
18:05	35.9	35.9	35.9	63	24.5	1	4	112	0.00	29.948 
18:10	35.8	35.8	35.8	63	24.5	1	3	112	0.00	29.948 
18:15	35.5	35.5	35.5	64	24.5	1	2	112	0.00	29.950 
18:20	35.2	35.2	35.2	64	24.3	0	0	---	0.00	29.950 
18:25	35.0	35.0	35.0	65	24.4	0	0	---	0.00	29.950 
18:30	34.7	34.7	34.7	65	24.2	0	0	---	0.00	29.953 
18:35	34.4	34.4	34.4	65	23.9	0	0	---	0.00	29.953 
18:40	34.3	34.3	34.3	66	24.1	0	0	---	0.00	29.953 
18:45	34.0	34.0	34.0	67	24.2	0	0	---	0.00	29.958 
18:50	33.8	33.8	33.8	67	24.0	0	1	112	0.00	29.958 
18:55	33.8	33.8	33.8	68	24.4	0	2	112	0.00	29.958 
19:00	34.0	34.0	34.0	67	24.2	0	1	112	0.00	29.958 
19:05	34.0	34.0	34.0	67	24.2	0	1	112	0.00	29.958 
19:10	34.1	34.1	34.1	66	23.9	0	2	112	0.00	29.958 
19:15	34.3	34.3	34.3	66	24.1	0	2	112	0.00	29.965 
19:20	34.3	34.3	34.3	65	23.8	0	1	112	0.00	29.965 
19:25	34.4	34.4	34.4	65	23.9	0	2	90	0.00	29.965 
19:30	34.3	34.3	34.3	65	23.8	0	1	90	0.00	29.966 
19:35	34.1	34.1	34.1	65	23.6	0	1	90	0.00	29.966 
19:40	34.0	34.0	34.0	65	23.5	0	1	90	0.00	29.966 
19:45	33.7	33.7	33.7	65	23.2	0	0	---	0.00	29.967 
19:50	33.4	33.4	33.4	66	23.3	0	1	90	0.00	29.967 
19:55	32.9	32.9	32.9	66	22.8	0	1	90	0.00	29.967 
20:00	32.7	32.7	32.7	67	23.0	0	1	90	0.00	29.971 
20:05	32.5	32.5	32.5	67	22.8	1	4	22	0.00	29.971 
20:10	32.7	32.7	32.7	67	23.0	1	3	90	0.00	29.971 
20:15	32.7	32.7	32.7	68	23.3	1	4	90	0.00	29.971 
20:20	32.5	32.5	32.5	68	23.1	1	4	45	0.00	29.971 
20:25	32.4	32.4	32.4	69	23.4	1	3	45	0.00	29.971 
20:30	32.4	32.4	32.4	69	23.4	1	4	45	0.00	29.974 
20:35	32.1	32.1	32.1	71	23.8	2	6	68	0.00	29.974 
20:40	31.9	31.9	31.9	72	23.9	2	5	68	0.00	29.974 
20:45	31.8	31.8	31.8	73	24.1	1	4	45	0.00	29.974 
20:50	31.5	31.5	31.5	74	24.2	1	3	90	0.00	29.974 
20:55	31.2	31.2	31.2	74	23.9	1	5	68	0.00	29.974 
21:00	31.0	31.0	31.0	75	24.0	1	3	45	0.00	29.982 
21:05	30.7	30.7	30.7	76	24.0	1	3	112	0.00	29.982 
21:10	30.6	30.6	30.6	76	24.0	0	2	45	0.00	29.982 
21:15	30.6	30.6	30.6	77	24.3	1	2	45	0.00	29.984 
21:20	30.4	30.4	30.4	77	24.1	0	2	45	0.00	29.984 
21:25	30.3	30.3	30.3	77	24.0	1	2	45	0.00	29.984 
21:30	30.1	30.1	30.1	77	23.8	1	2	45	0.00	29.989 
21:35	30.0	30.0	30.0	78	24.0	1	3	45	0.00	29.989 
21:40	30.0	30.0	30.0	77	23.7	1	3	68	0.00	29.989 
21:45	29.8	29.8	29.8	77	23.5	0	3	68	0.00	29.995 
21:50	29.7	29.7	29.7	78	23.7	1	6	112	0.00	29.995 
21:55	29.4	29.4	29.4	78	23.4	1	2	45	0.00	29.995 
22:00	29.3	29.3	29.3	79	23.6	0	2	45	0.00	29.998 
22:05	29.1	29.1	29.1	79	23.4	1	2	45	0.00	29.998 
22:10	28.8	28.8	28.8	79	23.1	1	3	45	0.00	29.998 
22:15	28.8	28.8	28.8	80	23.4	1	3	45	0.00	30.000 
22:20	28.7	28.7	28.7	80	23.3	1	2	68	0.00	30.000 
22:25	28.4	28.4	28.4	80	23.0	1	3	90	0.00	30.000 
22:30	28.4	28.4	28.4	80	23.0	0	1	90	0.00	30.006 
22:35	28.2	28.2	28.2	81	23.1	0	1	90	0.00	30.006 
22:40	28.1	28.1	28.1	81	23.0	0	1	90	0.00	30.006 
22:45	27.8	27.8	27.8	81	22.7	0	1	90	0.00	30.011 
22:50	27.6	27.6	27.6	81	22.5	0	1	90	0.00	30.011 
22:55	27.5	27.5	27.5	81	22.4	0	1	90	0.00	30.011 
23:00	27.5	27.5	27.5	81	22.4	0	2	90	0.00	30.011 
23:05	27.3	27.3	27.3	81	22.3	0	2	68	0.00	30.011 
23:10	27.3	27.3	27.3	80	22.0	0	1	68	0.00	30.011 
23:15	27.3	27.3	27.3	80	22.0	0	2	68	0.00	30.004 
23:20	27.2	27.2	27.2	79	21.6	0	2	45	0.00	30.004 
23:25	27.3	27.3	27.3	79	21.7	1	3	135	0.00	30.004 
23:30	27.3	27.3	27.3	79	21.7	1	2	90	0.00	30.005 
23:35	27.3	27.3	27.3	78	21.4	1	2	90	0.00	30.005 
23:40	27.2	27.2	27.2	79	21.6	0	2	90	0.00	30.005 
23:45	27.0	27.0	27.0	79	21.4	0	1	90	0.00	30.006 
23:50	27.0	27.0	27.0	79	21.4	0	2	90	0.00	30.006 
23:55	26.9	26.9	26.9	79	21.3	1	2	112	0.00	30.006 

CoCoRaHS
IN-AL-39
A2 Web Hosting
Creative Commons License
GoDaddy
Look for:

loaded 2017-10-17 18:29:29 • last modified 2010-11-18 10:43:29
Privacy PolicyDisclaimer
• wx.awcolley.com is powered by PmWiki v.2002016 •
• all content (unless otherwise noted) © 2017 A W Colley